createdAt,value
2017-07-27T00:00:04.109Z,15.67
2017-07-27T00:00:32.024Z,15.63
2017-07-27T00:01:00.048Z,15.65
2017-07-27T00:01:28.245Z,15.71
2017-07-27T00:01:56.460Z,15.71
2017-07-27T00:02:24.555Z,15.63
2017-07-27T00:02:52.755Z,15.68
2017-07-27T00:03:20.922Z,15.65
2017-07-27T00:03:49.117Z,15.73
2017-07-27T00:04:17.327Z,15.77
2017-07-27T00:04:45.409Z,15.74
2017-07-27T00:05:13.556Z,15.68
2017-07-27T00:05:41.789Z,15.63
2017-07-27T00:06:10.032Z,15.71
2017-07-27T00:06:38.279Z,15.62
2017-07-27T00:07:06.414Z,15.63
2017-07-27T00:07:34.603Z,15.65
2017-07-27T00:08:02.662Z,15.56
2017-07-27T00:08:30.733Z,15.6
2017-07-27T00:08:58.877Z,15.47
2017-07-27T00:09:26.985Z,15.44
2017-07-27T00:09:55.205Z,15.45
2017-07-27T00:10:23.433Z,15.4
2017-07-27T00:10:51.535Z,15.31
2017-07-27T00:11:19.667Z,15.35
2017-07-27T00:11:47.717Z,15.43
2017-07-27T00:12:15.887Z,15.37
2017-07-27T00:12:43.937Z,15.37
2017-07-27T00:13:12.161Z,15.31
2017-07-27T00:13:40.384Z,15.35
2017-07-27T00:14:08.366Z,15.34
2017-07-27T00:14:36.454Z,15.25
2017-07-27T00:15:04.701Z,15.26
2017-07-27T00:15:32.799Z,15.22
2017-07-27T00:16:00.974Z,15.18
2017-07-27T00:16:29.189Z,15.19
2017-07-27T00:16:57.403Z,15.16
2017-07-27T00:17:25.622Z,15.08
2017-07-27T00:17:53.663Z,15.01
2017-07-27T00:18:21.818Z,15.01
2017-07-27T00:18:49.924Z,14.98
2017-07-27T00:19:18.028Z,14.93
2017-07-27T00:19:46.128Z,14.97
2017-07-27T00:20:14.316Z,14.95
2017-07-27T00:20:42.543Z,14.97
2017-07-27T00:21:10.570Z,14.89
2017-07-27T00:21:38.695Z,14.95
2017-07-27T00:22:06.882Z,14.89
2017-07-27T00:22:34.956Z,14.86
2017-07-27T00:23:02.952Z,14.86
2017-07-27T00:23:31.041Z,14.82
2017-07-27T00:23:59.187Z,14.87
2017-07-27T00:24:27.176Z,14.8
2017-07-27T00:24:55.208Z,14.77
2017-07-27T00:25:23.414Z,14.75
2017-07-27T00:25:51.518Z,14.75
2017-07-27T00:26:19.745Z,14.63
2017-07-27T00:26:47.845Z,14.71
2017-07-27T00:27:16.049Z,14.7
2017-07-27T00:27:44.153Z,14.75
2017-07-27T00:28:12.473Z,14.66
2017-07-27T00:28:40.584Z,14.67
2017-07-27T00:29:08.781Z,14.64
2017-07-27T00:29:36.888Z,14.64
2017-07-27T00:30:05.233Z,14.67
2017-07-27T00:30:33.381Z,14.56
2017-07-27T00:31:01.443Z,14.59
2017-07-27T00:31:29.528Z,14.61
2017-07-27T00:31:57.611Z,14.6
2017-07-27T00:32:25.604Z,14.56
2017-07-27T00:32:53.786Z,14.56
2017-07-27T00:33:22.096Z,14.6
2017-07-27T00:33:50.320Z,14.64
2017-07-27T00:34:18.475Z,14.69
2017-07-27T00:34:46.531Z,14.67
2017-07-27T00:35:14.622Z,14.66
2017-07-27T00:35:42.801Z,14.63
2017-07-27T00:36:11.000Z,14.56
2017-07-27T00:36:39.171Z,14.6
2017-07-27T00:37:07.255Z,14.57
2017-07-27T00:37:35.435Z,14.6
2017-07-27T00:38:03.521Z,14.53
2017-07-27T00:38:31.839Z,14.49
2017-07-27T00:38:59.898Z,14.56
2017-07-27T00:39:27.993Z,14.51
2017-07-27T00:39:55.909Z,14.49
2017-07-27T00:40:24.081Z,14.6
2017-07-27T00:40:52.300Z,14.61
2017-07-27T00:41:20.479Z,14.6
2017-07-27T00:41:48.698Z,14.64
2017-07-27T00:42:16.941Z,14.6
2017-07-27T00:42:45.187Z,14.63
2017-07-27T00:43:13.326Z,14.66
2017-07-27T00:43:41.665Z,14.63
2017-07-27T00:44:09.615Z,14.61
2017-07-27T00:44:37.791Z,14.67
2017-07-27T00:45:06.031Z,14.8
2017-07-27T00:45:34.226Z,14.79
2017-07-27T00:46:02.333Z,14.74
2017-07-27T00:46:30.486Z,14.74
2017-07-27T00:46:58.776Z,14.74
2017-07-27T00:47:26.857Z,14.74
2017-07-27T00:47:55.065Z,14.86
2017-07-27T00:48:23.403Z,14.85
2017-07-27T00:48:51.573Z,14.8
2017-07-27T00:49:19.676Z,14.85
2017-07-27T00:49:47.863Z,14.87
2017-07-27T00:50:15.924Z,14.8
2017-07-27T00:50:44.121Z,14.87
2017-07-27T00:51:12.231Z,14.83
2017-07-27T00:51:40.449Z,14.89
2017-07-27T00:52:08.329Z,14.82
2017-07-27T00:52:36.478Z,14.83
2017-07-27T00:53:04.602Z,14.86
2017-07-27T00:53:32.759Z,14.8
2017-07-27T00:54:00.954Z,14.82
2017-07-27T00:54:29.047Z,14.85
2017-07-27T00:54:57.146Z,14.85
2017-07-27T00:55:25.352Z,14.85
2017-07-27T00:55:53.545Z,14.8
2017-07-27T00:56:21.743Z,14.83
2017-07-27T00:56:49.939Z,14.86
2017-07-27T00:57:18.163Z,14.87
2017-07-27T00:57:46.367Z,14.83
2017-07-27T00:58:14.582Z,14.83
2017-07-27T00:58:42.910Z,14.86
2017-07-27T00:59:10.980Z,14.77
2017-07-27T00:59:39.120Z,14.71
2017-07-27T01:00:07.260Z,14.66
2017-07-27T01:00:35.374Z,14.66
2017-07-27T01:01:03.578Z,14.63
2017-07-27T01:01:31.647Z,14.66
2017-07-27T01:01:59.708Z,14.66
2017-07-27T01:02:27.914Z,14.67
2017-07-27T01:02:56.035Z,14.67
2017-07-27T01:03:24.148Z,14.67
2017-07-27T01:03:52.217Z,14.64
2017-07-27T01:04:20.309Z,14.6
2017-07-27T01:04:48.411Z,14.63
2017-07-27T01:05:16.661Z,14.61
2017-07-27T01:05:44.824Z,14.59
2017-07-27T01:06:12.963Z,14.56
2017-07-27T01:06:40.998Z,14.49
2017-07-27T01:07:09.206Z,14.57
2017-07-27T01:07:37.329Z,14.52
2017-07-27T01:08:05.265Z,14.51
2017-07-27T01:08:33.419Z,14.52
2017-07-27T01:09:01.587Z,14.48
2017-07-27T01:09:29.788Z,14.46
2017-07-27T01:09:58.030Z,14.48
2017-07-27T01:10:26.216Z,14.51
2017-07-27T01:10:54.395Z,14.45
2017-07-27T01:11:22.471Z,14.49
2017-07-27T01:11:50.669Z,14.49
2017-07-27T01:12:18.858Z,14.44
2017-07-27T01:12:46.981Z,14.38
2017-07-27T01:13:15.086Z,14.42
2017-07-27T01:13:43.361Z,14.46
2017-07-27T01:14:11.608Z,14.41
2017-07-27T01:14:39.858Z,14.48
2017-07-27T01:15:07.981Z,14.45
2017-07-27T01:15:36.068Z,14.48
2017-07-27T01:16:04.141Z,14.46
2017-07-27T01:16:32.218Z,14.49
2017-07-27T01:17:00.427Z,14.45
2017-07-27T01:17:28.421Z,14.48
2017-07-27T01:17:56.534Z,14.46
2017-07-27T01:18:24.521Z,14.49
2017-07-27T01:18:52.832Z,14.46
2017-07-27T01:19:21.056Z,14.45
2017-07-27T01:19:49.197Z,14.41
2017-07-27T01:20:17.342Z,14.36
2017-07-27T01:20:45.532Z,14.49
2017-07-27T01:21:13.648Z,14.45
2017-07-27T01:21:41.887Z,14.48
2017-07-27T01:22:10.029Z,14.49
2017-07-27T01:22:38.185Z,14.44
2017-07-27T01:23:06.327Z,14.48
2017-07-27T01:23:34.498Z,14.48
2017-07-27T01:24:02.784Z,14.53
2017-07-27T01:24:30.834Z,14.49
2017-07-27T01:24:59.053Z,14.53
2017-07-27T01:25:27.058Z,14.57
2017-07-27T01:25:55.259Z,14.51
2017-07-27T01:26:23.467Z,14.59
2017-07-27T01:26:51.608Z,14.48
2017-07-27T01:27:19.781Z,14.59
2017-07-27T01:27:48.062Z,14.57
2017-07-27T01:28:16.114Z,14.48
2017-07-27T01:28:44.242Z,14.44
2017-07-27T01:29:12.561Z,14.52
2017-07-27T01:29:40.689Z,14.48
2017-07-27T01:30:08.937Z,14.45
2017-07-27T01:30:36.980Z,14.48
2017-07-27T01:31:05.025Z,14.45
2017-07-27T01:31:33.216Z,14.49
2017-07-27T01:32:01.349Z,14.44
2017-07-27T01:32:29.607Z,14.45
2017-07-27T01:32:57.810Z,14.46
2017-07-27T01:33:26.050Z,14.44
2017-07-27T01:33:54.225Z,14.46
2017-07-27T01:34:22.468Z,14.44
2017-07-27T01:34:50.648Z,14.38
2017-07-27T01:35:18.876Z,14.38
2017-07-27T01:35:47.022Z,14.41
2017-07-27T01:36:15.021Z,14.31
2017-07-27T01:36:43.094Z,14.31
2017-07-27T01:37:11.197Z,14.24
2017-07-27T01:37:39.398Z,14.28
2017-07-27T01:38:07.433Z,14.34
2017-07-27T01:38:35.639Z,14.31
2017-07-27T01:39:03.930Z,14.36
2017-07-27T01:39:32.083Z,14.34
2017-07-27T01:40:00.232Z,14.33
2017-07-27T01:40:28.465Z,14.34
2017-07-27T01:40:56.659Z,14.38
2017-07-27T01:41:24.730Z,14.36
2017-07-27T01:41:52.918Z,14.36
2017-07-27T01:42:20.888Z,14.42
2017-07-27T01:42:49.124Z,14.34
2017-07-27T01:43:17.333Z,14.39
2017-07-27T01:43:45.346Z,14.36
2017-07-27T01:44:13.675Z,14.36
2017-07-27T01:44:41.774Z,14.34
2017-07-27T01:45:09.884Z,14.38
2017-07-27T01:45:38.016Z,14.33
2017-07-27T01:46:06.070Z,14.36
2017-07-27T01:46:34.219Z,14.38
2017-07-27T01:47:02.238Z,14.33
2017-07-27T01:47:30.456Z,14.44
2017-07-27T01:47:58.672Z,14.36
2017-07-27T01:48:26.899Z,14.36
2017-07-27T01:48:55.125Z,14.41
2017-07-27T01:49:23.440Z,14.39
2017-07-27T01:49:51.661Z,14.31
2017-07-27T01:50:19.878Z,14.36
2017-07-27T01:50:48.085Z,14.33
2017-07-27T01:51:16.227Z,14.24
2017-07-27T01:51:44.425Z,14.2
2017-07-27T01:52:12.597Z,14.24
2017-07-27T01:52:40.754Z,14.16
2017-07-27T01:53:08.837Z,14.2
2017-07-27T01:53:36.982Z,14.21
2017-07-27T01:54:05.078Z,14.06
2017-07-27T01:54:33.377Z,14.09
2017-07-27T01:55:01.579Z,14.08
2017-07-27T01:55:29.676Z,14.08
2017-07-27T01:55:57.794Z,14.09
2017-07-27T01:56:25.802Z,14.08
2017-07-27T01:56:53.897Z,14.09
2017-07-27T01:57:22.002Z,14.08
2017-07-27T01:57:50.089Z,14.15
2017-07-27T01:58:18.246Z,14.16
2017-07-27T01:58:46.416Z,14.16
2017-07-27T01:59:14.749Z,14.16
2017-07-27T01:59:42.794Z,14.24
2017-07-27T02:00:10.828Z,14.21
2017-07-27T02:00:39.033Z,14.24
2017-07-27T02:01:06.986Z,14.21
2017-07-27T02:01:35.197Z,14.23
2017-07-27T02:02:03.385Z,14.21
2017-07-27T02:02:31.622Z,14.2
2017-07-27T02:02:59.812Z,14.3
2017-07-27T02:03:27.991Z,14.3
2017-07-27T02:03:56.218Z,14.31
2017-07-27T02:04:24.519Z,14.31
2017-07-27T02:04:52.743Z,14.34
2017-07-27T02:05:20.942Z,14.3
2017-07-27T02:05:49.072Z,14.36
2017-07-27T02:06:17.258Z,14.36
2017-07-27T02:06:45.389Z,14.36
2017-07-27T02:07:13.501Z,14.38
2017-07-27T02:07:41.704Z,14.41
2017-07-27T02:08:09.967Z,14.34
2017-07-27T02:08:38.057Z,14.33
2017-07-27T02:09:06.287Z,14.36
2017-07-27T02:09:34.593Z,14.38
2017-07-27T02:10:02.672Z,14.41
2017-07-27T02:10:30.582Z,14.38
2017-07-27T02:10:58.753Z,14.38
2017-07-27T02:11:27.017Z,14.38
2017-07-27T02:11:55.247Z,14.41
2017-07-27T02:12:23.322Z,14.38
2017-07-27T02:12:51.371Z,14.36
2017-07-27T02:13:19.571Z,14.41
2017-07-27T02:13:47.704Z,14.38
2017-07-27T02:14:15.885Z,14.42
2017-07-27T02:14:44.096Z,14.33
2017-07-27T02:15:12.002Z,14.38
2017-07-27T02:15:39.929Z,14.33
2017-07-27T02:16:08.092Z,14.36
2017-07-27T02:16:36.307Z,14.36
2017-07-27T02:17:04.568Z,14.36
2017-07-27T02:17:32.813Z,14.33
2017-07-27T02:18:01.054Z,14.36
2017-07-27T02:18:29.198Z,14.34
2017-07-27T02:18:57.437Z,14.3
2017-07-27T02:19:25.738Z,14.34
2017-07-27T02:19:53.934Z,14.34
2017-07-27T02:20:22.061Z,14.34
2017-07-27T02:20:50.158Z,14.36
2017-07-27T02:21:18.229Z,14.34
2017-07-27T02:21:46.508Z,14.33
2017-07-27T02:22:14.641Z,14.33
2017-07-27T02:22:42.855Z,14.34
2017-07-27T02:23:11.117Z,14.38
2017-07-27T02:23:39.260Z,14.36
2017-07-27T02:24:07.431Z,14.36
2017-07-27T02:24:35.566Z,14.31
2017-07-27T02:25:03.767Z,14.33
2017-07-27T02:25:31.949Z,14.33
2017-07-27T02:26:00.021Z,14.31
2017-07-27T02:26:28.127Z,14.27
2017-07-27T02:26:56.192Z,14.2
2017-07-27T02:27:24.179Z,14.26
2017-07-27T02:27:52.255Z,14.21
2017-07-27T02:28:20.253Z,14.23
2017-07-27T02:28:48.374Z,14.24
2017-07-27T02:29:16.457Z,14.16
2017-07-27T02:29:44.742Z,14.21
2017-07-27T02:30:12.853Z,14.21
2017-07-27T02:30:40.922Z,14.19
2017-07-27T02:31:09.243Z,14.16
2017-07-27T02:31:37.418Z,14.21
2017-07-27T02:32:05.615Z,14.11
2017-07-27T02:32:33.754Z,14.13
2017-07-27T02:33:01.890Z,14.13
2017-07-27T02:33:29.995Z,14.06
2017-07-27T02:33:58.222Z,14.09
2017-07-27T02:34:26.462Z,14.05
2017-07-27T02:34:54.743Z,14.06
2017-07-27T02:35:22.818Z,14.03
2017-07-27T02:35:50.914Z,14.11
2017-07-27T02:36:19.018Z,13.99
2017-07-27T02:36:47.165Z,13.99
2017-07-27T02:37:15.351Z,13.95
2017-07-27T02:37:43.529Z,13.93
2017-07-27T02:38:11.668Z,14.01
2017-07-27T02:38:39.867Z,13.94
2017-07-27T02:39:08.022Z,13.94
2017-07-27T02:39:36.123Z,13.91
2017-07-27T02:40:04.420Z,13.94
2017-07-27T02:40:32.529Z,13.91
2017-07-27T02:41:00.776Z,13.94
2017-07-27T02:41:28.885Z,13.9
2017-07-27T02:41:56.920Z,13.93
2017-07-27T02:42:25.016Z,13.84
2017-07-27T02:42:53.170Z,13.91
2017-07-27T02:43:21.287Z,13.9
2017-07-27T02:43:49.510Z,13.87
2017-07-27T02:44:17.718Z,13.84
2017-07-27T02:44:45.836Z,13.79
2017-07-27T02:45:14.113Z,13.72
2017-07-27T02:45:42.173Z,13.76
2017-07-27T02:46:10.276Z,13.76
2017-07-27T02:46:38.389Z,13.69
2017-07-27T02:47:06.624Z,13.75
2017-07-27T02:47:34.718Z,13.73
2017-07-27T02:48:02.873Z,13.66
2017-07-27T02:48:31.058Z,13.63
2017-07-27T02:48:59.253Z,13.63
2017-07-27T02:49:27.477Z,13.58
2017-07-27T02:49:55.772Z,13.73
2017-07-27T02:50:23.903Z,13.63
2017-07-27T02:50:51.831Z,13.78
2017-07-27T02:51:19.917Z,13.73
2017-07-27T02:51:47.987Z,13.76
2017-07-27T02:52:16.187Z,13.72
2017-07-27T02:52:44.351Z,13.83
2017-07-27T02:53:12.454Z,13.75
2017-07-27T02:53:40.577Z,13.76
2017-07-27T02:54:08.783Z,13.81
2017-07-27T02:54:36.725Z,13.76
2017-07-27T02:55:04.918Z,13.81
2017-07-27T02:55:33.152Z,13.75
2017-07-27T02:56:01.237Z,13.84
2017-07-27T02:56:29.450Z,13.75
2017-07-27T02:56:57.558Z,13.75
2017-07-27T02:57:25.710Z,13.73
2017-07-27T02:57:53.861Z,13.66
2017-07-27T02:58:22.058Z,13.73
2017-07-27T02:58:50.273Z,13.75
2017-07-27T02:59:18.499Z,13.73
2017-07-27T02:59:46.620Z,13.72
2017-07-27T03:00:14.929Z,13.76
2017-07-27T03:00:43.120Z,13.79
2017-07-27T03:01:11.347Z,13.81
2017-07-27T03:01:39.464Z,13.86
2017-07-27T03:02:07.655Z,13.79
2017-07-27T03:02:35.743Z,13.83
2017-07-27T03:03:03.984Z,13.72
2017-07-27T03:03:32.180Z,13.83
2017-07-27T03:04:00.383Z,13.79
2017-07-27T03:04:28.580Z,13.79
2017-07-27T03:04:56.769Z,13.86
2017-07-27T03:05:25.062Z,13.81
2017-07-27T03:05:53.332Z,13.81
2017-07-27T03:06:21.500Z,13.87
2017-07-27T03:06:49.663Z,13.93
2017-07-27T03:07:17.847Z,13.86
2017-07-27T03:07:45.965Z,13.88
2017-07-27T03:08:14.131Z,13.91
2017-07-27T03:08:42.278Z,13.88
2017-07-27T03:09:10.379Z,13.87
2017-07-27T03:09:38.637Z,13.87
2017-07-27T03:10:06.662Z,13.83
2017-07-27T03:10:34.945Z,13.83
2017-07-27T03:11:03.108Z,13.79
2017-07-27T03:11:31.200Z,13.78
2017-07-27T03:11:59.322Z,13.72
2017-07-27T03:12:27.422Z,13.76
2017-07-27T03:12:55.645Z,13.78
2017-07-27T03:13:23.885Z,13.78
2017-07-27T03:13:52.081Z,13.75
2017-07-27T03:14:20.102Z,13.75
2017-07-27T03:14:48.221Z,13.7
2017-07-27T03:15:16.486Z,13.73
2017-07-27T03:15:44.699Z,13.75
2017-07-27T03:16:12.869Z,13.72
2017-07-27T03:16:41.058Z,13.78
2017-07-27T03:17:09.212Z,13.75
2017-07-27T03:17:37.322Z,13.84
2017-07-27T03:18:05.463Z,13.83
2017-07-27T03:18:33.682Z,13.76
2017-07-27T03:19:01.809Z,13.75
2017-07-27T03:19:29.856Z,13.78
2017-07-27T03:19:57.964Z,13.7
2017-07-27T03:20:26.201Z,13.75
2017-07-27T03:20:54.412Z,13.72
2017-07-27T03:21:22.507Z,13.76
2017-07-27T03:21:50.631Z,13.68
2017-07-27T03:22:18.853Z,13.7
2017-07-27T03:22:46.946Z,13.7
2017-07-27T03:23:15.136Z,13.76
2017-07-27T03:23:43.273Z,13.73
2017-07-27T03:24:11.446Z,13.72
2017-07-27T03:24:39.572Z,13.7
2017-07-27T03:25:07.767Z,13.73
2017-07-27T03:25:35.928Z,13.62
2017-07-27T03:26:03.920Z,13.69
2017-07-27T03:26:32.117Z,13.66
2017-07-27T03:27:00.327Z,13.68
2017-07-27T03:27:28.565Z,13.63
2017-07-27T03:27:56.639Z,13.63
2017-07-27T03:28:24.737Z,13.62
2017-07-27T03:28:52.927Z,13.63
2017-07-27T03:29:21.146Z,13.6
2017-07-27T03:29:49.147Z,13.6
2017-07-27T03:30:17.331Z,13.62
2017-07-27T03:30:45.520Z,13.58
2017-07-27T03:31:13.585Z,13.51
2017-07-27T03:31:41.623Z,13.55
2017-07-27T03:32:09.845Z,13.48
2017-07-27T03:32:38.044Z,13.53
2017-07-27T03:33:06.035Z,13.5
2017-07-27T03:33:34.086Z,13.48
2017-07-27T03:34:02.294Z,13.51
2017-07-27T03:34:30.487Z,13.55
2017-07-27T03:34:58.516Z,13.39
2017-07-27T03:35:26.765Z,13.44
2017-07-27T03:35:54.927Z,13.45
2017-07-27T03:36:23.139Z,13.54
2017-07-27T03:36:51.213Z,13.45
2017-07-27T03:37:19.425Z,13.35
2017-07-27T03:37:47.578Z,13.42
2017-07-27T03:38:15.656Z,13.5
2017-07-27T03:38:43.902Z,13.5
2017-07-27T03:39:12.101Z,13.48
2017-07-27T03:39:40.310Z,13.39
2017-07-27T03:40:08.361Z,13.47
2017-07-27T03:40:36.628Z,13.44
2017-07-27T03:41:04.850Z,13.4
2017-07-27T03:41:32.924Z,13.5
2017-07-27T03:42:01.051Z,13.37
2017-07-27T03:42:29.280Z,13.4
2017-07-27T03:42:57.447Z,13.5
2017-07-27T03:43:25.647Z,13.44
2017-07-27T03:43:53.570Z,13.44
2017-07-27T03:44:21.704Z,13.4
2017-07-27T03:44:49.915Z,13.42
2017-07-27T03:45:17.930Z,13.42
2017-07-27T03:45:46.023Z,13.44
2017-07-27T03:46:14.198Z,13.42
2017-07-27T03:46:42.395Z,13.42
2017-07-27T03:47:10.557Z,13.45
2017-07-27T03:47:38.616Z,13.42
2017-07-27T03:48:06.768Z,13.47
2017-07-27T03:48:34.922Z,13.44
2017-07-27T03:49:03.033Z,13.51
2017-07-27T03:49:31.003Z,13.55
2017-07-27T03:49:59.206Z,13.47
2017-07-27T03:50:27.216Z,13.36
2017-07-27T03:50:55.397Z,13.48
2017-07-27T03:51:23.593Z,13.42
2017-07-27T03:51:51.674Z,13.44
2017-07-27T03:52:19.761Z,13.48
2017-07-27T03:52:47.958Z,13.5
2017-07-27T03:53:16.136Z,13.42
2017-07-27T03:53:44.240Z,13.45
2017-07-27T03:54:12.235Z,13.54
2017-07-27T03:54:40.453Z,13.54
2017-07-27T03:55:08.660Z,13.42
2017-07-27T03:55:36.837Z,13.44
2017-07-27T03:56:05.143Z,13.39
2017-07-27T03:56:33.404Z,13.51
2017-07-27T03:57:01.590Z,13.47
2017-07-27T03:57:29.804Z,13.47
2017-07-27T03:57:58.014Z,13.42
2017-07-27T03:58:26.209Z,13.5
2017-07-27T03:58:54.405Z,13.45
2017-07-27T03:59:22.495Z,13.47
2017-07-27T03:59:50.598Z,13.48
2017-07-27T04:00:18.489Z,13.48
2017-07-27T04:00:46.698Z,13.44
2017-07-27T04:01:14.922Z,13.42
2017-07-27T04:01:43.110Z,13.53
2017-07-27T04:02:11.231Z,13.54
2017-07-27T04:02:39.330Z,13.45
2017-07-27T04:03:07.582Z,13.45
2017-07-27T04:03:35.765Z,13.5
2017-07-27T04:04:03.906Z,13.58
2017-07-27T04:04:32.027Z,13.55
2017-07-27T04:05:00.187Z,13.36
2017-07-27T04:05:28.168Z,13.5
2017-07-27T04:05:56.402Z,13.54
2017-07-27T04:06:24.505Z,13.48
2017-07-27T04:06:52.590Z,13.53
2017-07-27T04:07:20.784Z,13.5
2017-07-27T04:07:48.940Z,13.5
2017-07-27T04:08:16.880Z,13.44
2017-07-27T04:08:45.116Z,13.54
2017-07-27T04:09:13.317Z,13.39
2017-07-27T04:09:41.457Z,13.48
2017-07-27T04:10:09.438Z,13.55
2017-07-27T04:10:37.576Z,13.36
2017-07-27T04:11:05.884Z,13.51
2017-07-27T04:11:33.954Z,13.45
2017-07-27T04:12:02.192Z,13.4
2017-07-27T04:12:30.397Z,13.42
2017-07-27T04:12:58.611Z,13.45
2017-07-27T04:13:26.826Z,13.47
2017-07-27T04:13:55.051Z,13.44
2017-07-27T04:14:23.033Z,13.45
2017-07-27T04:14:51.119Z,13.44
2017-07-27T04:15:19.119Z,13.37
2017-07-27T04:15:47.187Z,13.45
2017-07-27T04:16:15.447Z,13.54
2017-07-27T04:16:43.424Z,13.4
2017-07-27T04:17:11.544Z,13.42
2017-07-27T04:17:39.748Z,13.44
2017-07-27T04:18:07.840Z,13.4
2017-07-27T04:18:36.015Z,13.45
2017-07-27T04:19:04.137Z,13.42
2017-07-27T04:19:32.270Z,13.39
2017-07-27T04:20:00.493Z,13.48
2017-07-27T04:20:28.558Z,13.42
2017-07-27T04:20:56.738Z,13.45
2017-07-27T04:21:24.976Z,13.48
2017-07-27T04:21:53.015Z,13.37
2017-07-27T04:22:21.217Z,13.45
2017-07-27T04:22:49.341Z,13.45
2017-07-27T04:23:17.601Z,13.39
2017-07-27T04:23:45.714Z,13.47
2017-07-27T04:24:13.858Z,13.44
2017-07-27T04:24:42.003Z,13.42
2017-07-27T04:25:10.250Z,13.44
2017-07-27T04:25:38.490Z,13.31
2017-07-27T04:26:06.708Z,13.35
2017-07-27T04:26:34.946Z,13.31
2017-07-27T04:27:03.083Z,13.37
2017-07-27T04:27:31.314Z,13.28
2017-07-27T04:27:59.523Z,13.29
2017-07-27T04:28:27.717Z,13.28
2017-07-27T04:28:55.860Z,13.21
2017-07-27T04:29:24.071Z,13.21
2017-07-27T04:29:52.053Z,13.25
2017-07-27T04:30:20.294Z,13.27
2017-07-27T04:30:48.430Z,13.24
2017-07-27T04:31:16.784Z,13.25
2017-07-27T04:31:45.000Z,13.25
2017-07-27T04:32:13.142Z,13.24
2017-07-27T04:32:41.303Z,13.28
2017-07-27T04:33:09.454Z,13.31
2017-07-27T04:33:37.563Z,13.2
2017-07-27T04:34:05.665Z,13.28
2017-07-27T04:34:33.804Z,13.32
2017-07-27T04:35:01.816Z,13.24
2017-07-27T04:35:29.964Z,13.31
2017-07-27T04:35:58.156Z,13.35
2017-07-27T04:36:26.365Z,13.29
2017-07-27T04:36:54.492Z,13.28
2017-07-27T04:37:22.601Z,13.19
2017-07-27T04:37:50.811Z,13.32
2017-07-27T04:38:19.028Z,13.27
2017-07-27T04:38:47.123Z,13.25
2017-07-27T04:39:15.185Z,13.24
2017-07-27T04:39:43.194Z,13.24
2017-07-27T04:40:11.341Z,13.21
2017-07-27T04:40:39.450Z,13.19
2017-07-27T04:41:07.643Z,13.21
2017-07-27T04:41:35.771Z,13.17
2017-07-27T04:42:03.856Z,13.25
2017-07-27T04:42:32.042Z,13.17
2017-07-27T04:43:00.206Z,13.2
2017-07-27T04:43:28.393Z,13.27
2017-07-27T04:43:56.496Z,13.2
2017-07-27T04:44:24.423Z,13.19
2017-07-27T04:44:52.643Z,13.16
2017-07-27T04:45:20.890Z,13.13
2017-07-27T04:45:49.122Z,13.14
2017-07-27T04:46:17.289Z,13.1
2017-07-27T04:46:45.501Z,13.14
2017-07-27T04:47:13.487Z,13.09
2017-07-27T04:47:41.480Z,13.17
2017-07-27T04:48:09.671Z,13.09
2017-07-27T04:48:37.872Z,13.06
2017-07-27T04:49:06.105Z,13.07
2017-07-27T04:49:34.281Z,13.09
2017-07-27T04:50:02.472Z,13.07
2017-07-27T04:50:30.678Z,13.07
2017-07-27T04:50:58.895Z,13.09
2017-07-27T04:51:27.048Z,13.11
2017-07-27T04:51:55.120Z,13.07
2017-07-27T04:52:23.113Z,13.03
2017-07-27T04:52:51.066Z,13.06
2017-07-27T04:53:19.136Z,13.03
2017-07-27T04:53:47.330Z,13.13
2017-07-27T04:54:15.543Z,13.09
2017-07-27T04:54:43.779Z,13.07
2017-07-27T04:55:11.756Z,13.09
2017-07-27T04:55:39.813Z,13.11
2017-07-27T04:56:07.874Z,13.11
2017-07-27T04:56:36.153Z,13.06
2017-07-27T04:57:04.357Z,13.07
2017-07-27T04:57:32.430Z,13.06
2017-07-27T04:58:00.532Z,13.07
2017-07-27T04:58:28.666Z,13.13
2017-07-27T04:58:56.882Z,13.11
2017-07-27T04:59:25.114Z,13.02
2017-07-27T04:59:53.366Z,13.11
2017-07-27T05:00:21.442Z,13.01
2017-07-27T05:00:49.700Z,13.01
2017-07-27T05:01:17.793Z,12.99
2017-07-27T05:01:46.093Z,13.01
2017-07-27T05:02:14.275Z,13.01
2017-07-27T05:02:42.450Z,12.99
2017-07-27T05:03:10.647Z,12.96
2017-07-27T05:03:38.864Z,12.92
2017-07-27T05:04:07.085Z,12.92
2017-07-27T05:04:35.248Z,12.98
2017-07-27T05:05:03.484Z,12.91
2017-07-27T05:05:31.720Z,12.94
2017-07-27T05:05:59.905Z,12.92
2017-07-27T05:06:28.136Z,12.95
2017-07-27T05:06:56.332Z,12.95
2017-07-27T05:07:24.550Z,12.96
2017-07-27T05:07:52.774Z,12.94
2017-07-27T05:08:20.789Z,12.88
2017-07-27T05:08:49.014Z,12.88
2017-07-27T05:09:17.115Z,12.94
2017-07-27T05:09:45.211Z,12.92
2017-07-27T05:10:13.440Z,12.92
2017-07-27T05:10:41.551Z,12.89
2017-07-27T05:11:09.765Z,12.89
2017-07-27T05:11:37.854Z,12.88
2017-07-27T05:12:06.019Z,12.89
2017-07-27T05:12:34.111Z,12.84
2017-07-27T05:13:02.190Z,12.84
2017-07-27T05:13:30.298Z,12.89
2017-07-27T05:13:58.517Z,12.91
2017-07-27T05:14:26.604Z,12.86
2017-07-27T05:14:54.729Z,12.88
2017-07-27T05:15:22.818Z,12.88
2017-07-27T05:15:51.038Z,12.78
2017-07-27T05:16:19.140Z,12.86
2017-07-27T05:16:47.453Z,12.83
2017-07-27T05:17:15.543Z,12.84
2017-07-27T05:17:43.562Z,12.89
2017-07-27T05:18:11.459Z,12.89
2017-07-27T05:18:39.602Z,12.86
2017-07-27T05:19:07.810Z,12.8
2017-07-27T05:19:36.041Z,12.73
2017-07-27T05:20:04.187Z,12.74
2017-07-27T05:20:32.327Z,12.73
2017-07-27T05:21:00.197Z,12.77
2017-07-27T05:21:28.359Z,12.81
2017-07-27T05:21:56.660Z,12.73
2017-07-27T05:22:24.771Z,12.73
2017-07-27T05:22:52.740Z,12.88
2017-07-27T05:23:20.771Z,12.83
2017-07-27T05:23:48.910Z,12.76
2017-07-27T05:24:17.096Z,12.88
2017-07-27T05:24:45.137Z,12.88
2017-07-27T05:25:13.234Z,12.86
2017-07-27T05:25:41.439Z,12.91
2017-07-27T05:26:09.553Z,12.84
2017-07-27T05:26:37.935Z,12.86
2017-07-27T05:27:06.149Z,12.88
2017-07-27T05:27:34.217Z,12.83
2017-07-27T05:28:02.358Z,12.86
2017-07-27T05:28:30.565Z,12.89
2017-07-27T05:28:58.773Z,12.86
2017-07-27T05:29:26.935Z,12.84
2017-07-27T05:29:55.128Z,12.88
2017-07-27T05:30:23.133Z,12.88
2017-07-27T05:30:51.362Z,12.84
2017-07-27T05:31:19.562Z,12.89
2017-07-27T05:31:47.856Z,12.89
2017-07-27T05:32:16.076Z,12.89
2017-07-27T05:32:44.224Z,12.94
2017-07-27T05:33:12.346Z,12.84
2017-07-27T05:33:40.543Z,12.86
2017-07-27T05:34:08.642Z,12.84
2017-07-27T05:34:36.832Z,12.84
2017-07-27T05:35:05.055Z,12.89
2017-07-27T05:35:33.254Z,12.84
2017-07-27T05:36:01.257Z,12.91
2017-07-27T05:36:29.489Z,12.86
2017-07-27T05:36:57.483Z,12.84
2017-07-27T05:37:25.705Z,12.84
2017-07-27T05:37:53.897Z,12.78
2017-07-27T05:38:21.960Z,12.84
2017-07-27T05:38:50.065Z,12.76
2017-07-27T05:39:18.211Z,12.81
2017-07-27T05:39:46.373Z,12.81
2017-07-27T05:40:14.598Z,12.83
2017-07-27T05:40:42.725Z,12.83
2017-07-27T05:41:10.903Z,12.8
2017-07-27T05:41:38.980Z,12.73
2017-07-27T05:42:07.121Z,12.77
2017-07-27T05:42:35.339Z,12.74
2017-07-27T05:43:03.520Z,12.69
2017-07-27T05:43:31.537Z,12.59
2017-07-27T05:43:59.675Z,12.65
2017-07-27T05:44:27.695Z,12.7
2017-07-27T05:44:55.680Z,12.73
2017-07-27T05:45:23.807Z,12.63
2017-07-27T05:45:51.910Z,12.65
2017-07-27T05:46:20.063Z,12.63
2017-07-27T05:46:48.315Z,12.74
2017-07-27T05:47:16.433Z,12.66
2017-07-27T05:47:44.519Z,12.62
2017-07-27T05:48:12.641Z,12.63
2017-07-27T05:48:40.827Z,12.63
2017-07-27T05:49:08.845Z,12.62
2017-07-27T05:49:37.009Z,12.61
2017-07-27T05:50:05.114Z,12.63
2017-07-27T05:50:33.284Z,12.69
2017-07-27T05:51:01.403Z,12.65
2017-07-27T05:51:29.619Z,12.66
2017-07-27T05:51:57.871Z,12.62
2017-07-27T05:52:25.997Z,12.69
2017-07-27T05:52:54.117Z,12.58
2017-07-27T05:53:22.159Z,12.65
2017-07-27T05:53:50.265Z,12.58
2017-07-27T05:54:18.443Z,12.58
2017-07-27T05:54:46.566Z,12.61
2017-07-27T05:55:14.718Z,12.59
2017-07-27T05:55:42.987Z,12.59
2017-07-27T05:56:11.296Z,12.58
2017-07-27T05:56:39.477Z,12.58
2017-07-27T05:57:07.532Z,12.58
2017-07-27T05:57:35.635Z,12.53
2017-07-27T05:58:03.875Z,12.48
2017-07-27T05:58:32.077Z,12.52
2017-07-27T05:59:00.271Z,12.62
2017-07-27T05:59:28.445Z,12.53
2017-07-27T05:59:56.652Z,12.52
2017-07-27T06:00:24.837Z,12.45
2017-07-27T06:00:53.073Z,12.52
2017-07-27T06:01:21.101Z,12.48
2017-07-27T06:01:49.294Z,12.45
2017-07-27T06:02:17.587Z,12.47
2017-07-27T06:02:45.693Z,12.44
2017-07-27T06:03:13.908Z,12.52